Time;durP1;ratioP1;P1;durP2;ratioP2;P2;SDS_P1;SDS_P2;PMS_P1;PMS_P2;Temp;Humidity;BMP_temperature;BMP_pressure;BME280_temperature;BME280_humidity;BME280_pressure;Samples;Min_cycle;Max_cycle;Signal;HPM_P1;HPM_P2
2023/10/22 00:02:13;;;;;;;0.83;0.70;;;;;;;11.66;100.00;99216.66;5040443;28;20219;-78
2023/10/22 00:04:39;;;;;;;0.50;0.50;;;;;;;11.68;100.00;99214.03;5042177;28;20191;-78
2023/10/22 00:07:05;;;;;;;1.67;0.70;;;;;;;11.69;100.00;99213.97;5045413;28;21092;-77
2023/10/22 00:09:30;;;;;;;1.30;0.63;;;;;;;11.72;100.00;99210.44;5045676;28;20191;-77
2023/10/22 00:11:55;;;;;;;1.43;0.70;;;;;;;11.73;100.00;99220.75;5042336;28;20274;-77
2023/10/22 00:14:21;;;;;;;1.43;0.80;;;;;;;11.74;100.00;99219.00;5056150;28;20222;-77
2023/10/22 00:16:46;;;;;;;0.73;0.70;;;;;;;11.72;100.00;99213.03;5040134;28;20207;-78
2023/10/22 00:19:11;;;;;;;1.70;0.70;;;;;;;11.72;100.00;99216.47;5049001;28;20201;-78
2023/10/22 00:21:36;;;;;;;1.13;0.70;;;;;;;11.70;100.00;99218.25;5040700;28;20250;-78
2023/10/22 00:24:02;;;;;;;2.03;0.90;;;;;;;11.68;100.00;99224.41;5041127;28;20200;-78
2023/10/22 00:26:27;;;;;;;1.90;0.90;;;;;;;11.63;100.00;99223.69;5042163;28;20438;-78
2023/10/22 00:28:52;;;;;;;1.83;1.03;;;;;;;11.57;100.00;99230.72;5040024;28;20585;-77
2023/10/22 00:31:18;;;;;;;3.23;1.13;;;;;;;11.49;100.00;99230.13;5045439;28;20182;-78
2023/10/22 00:33:43;;;;;;;1.57;0.77;;;;;;;11.43;100.00;99240.66;5041115;28;20200;-77
2023/10/22 00:36:08;;;;;;;1.73;0.90;;;;;;;11.36;100.00;99240.00;5046891;28;20902;-78
2023/10/22 00:38:34;;;;;;;0.80;0.70;;;;;;;11.29;100.00;99249.69;5037471;28;20233;-76
2023/10/22 00:40:59;;;;;;;1.20;0.87;;;;;;;11.23;100.00;99249.00;5040094;28;20284;-77
2023/10/22 00:43:25;;;;;;;1.50;0.80;;;;;;;11.16;100.00;99256.09;5044084;28;20187;-77
2023/10/22 00:45:51;;;;;;;1.00;0.80;;;;;;;11.09;100.00;99246.81;5043855;28;20208;-78
2023/10/22 00:48:17;;;;;;;0.80;0.70;;;;;;;11.04;100.00;99251.28;5044790;28;20211;-76
2023/10/22 00:50:43;;;;;;;0.80;0.80;;;;;;;11.01;100.00;99256.53;5038929;28;20202;-77
2023/10/22 00:53:13;;;;;;;1.83;0.90;;;;;;;10.95;100.00;99265.31;5036974;28;20194;-78
2023/10/22 00:55:39;;;;;;;1.87;0.83;;;;;;;10.90;100.00;99260.25;5038116;28;20298;-77
2023/10/22 00:58:05;;;;;;;1.90;1.33;;;;;;;10.87;100.00;99262.94;5038309;28;20750;-78
2023/10/22 01:00:32;;;;;;;2.33;1.33;;;;;;;10.86;100.00;99263.81;5040030;28;20475;-77
2023/10/22 01:03:00;;;;;;;2.33;1.50;;;;;;;10.86;100.00;99271.59;5041134;28;20193;-79
2023/10/22 01:05:26;;;;;;;1.73;1.13;;;;;;;10.86;100.00;99270.75;5043264;28;20183;-77
2023/10/22 01:07:52;;;;;;;2.13;0.90;;;;;;;10.87;100.00;99285.38;5037434;28;20217;-77
2023/10/22 01:10:17;;;;;;;1.10;1.00;;;;;;;10.85;100.00;99290.59;5043858;28;20979;-78
2023/10/22 01:12:42;;;;;;;2.13;1.10;;;;;;;10.83;100.00;99292.34;5044123;28;20190;-78
2023/10/22 01:15:08;;;;;;;1.20;0.97;;;;;;;10.81;100.00;99299.34;5039209;28;20190;-77
2023/10/22 01:17:33;;;;;;;2.33;1.00;;;;;;;10.79;100.00;99291.59;5038470;28;20679;-78
2023/10/22 01:19:58;;;;;;;1.10;0.93;;;;;;;10.77;100.00;99290.78;5042570;28;20193;-77
2023/10/22 01:22:24;;;;;;;2.27;1.00;;;;;;;10.75;100.00;99300.31;5042722;28;20189;-77
2023/10/22 01:24:49;;;;;;;2.23;1.00;;;;;;;10.73;100.00;99302.13;5041095;28;20195;-77
2023/10/22 01:27:15;;;;;;;2.50;1.20;;;;;;;10.72;100.00;99297.84;5056925;28;20215;-77
2023/10/22 01:29:40;;;;;;;2.43;1.13;;;;;;;10.74;100.00;99300.38;5041523;28;20201;-77
2023/10/22 01:32:06;;;;;;;1.37;1.10;;;;;;;10.73;100.00;99294.38;5037665;28;20191;-78
2023/10/22 01:34:31;;;;;;;2.17;1.20;;;;;;;10.74;100.00;99296.03;5039519;28;20244;-78
2023/10/22 01:36:57;;;;;;;2.77;1.33;;;;;;;10.75;100.00;99294.31;5044673;28;20208;-77
2023/10/22 01:39:22;;;;;;;3.27;1.33;;;;;;;10.75;100.00;99292.56;5056234;28;20289;-77
2023/10/22 01:41:48;;;;;;;1.47;1.00;;;;;;;10.75;100.00;99295.16;5041965;28;20198;-77
2023/10/22 01:44:13;;;;;;;1.80;0.80;;;;;;;10.76;100.00;99291.66;5042619;28;20538;-77
2023/10/22 01:46:39;;;;;;;1.60;0.87;;;;;;;10.78;100.00;99292.47;5042033;28;20222;-78
2023/10/22 01:49:04;;;;;;;2.43;1.43;;;;;;;10.77;100.00;99301.13;5042215;28;20225;-78
2023/10/22 01:51:29;;;;;;;1.23;0.80;;;;;;;10.79;100.00;99303.69;5041675;28;21017;-79
2023/10/22 01:53:55;;;;;;;2.00;1.03;;;;;;;10.80;100.00;99301.06;5044253;28;20245;-79
2023/10/22 01:56:20;;;;;;;3.10;1.23;;;;;;;10.80;100.00;99301.06;5053962;28;20204;-79
2023/10/22 01:58:45;;;;;;;2.07;1.10;;;;;;;10.80;100.00;99305.41;5063173;28;20194;-77
2023/10/22 02:01:11;;;;;;;1.63;1.00;;;;;;;10.83;100.00;99311.34;5040461;28;20193;-77
2023/10/22 02:03:36;;;;;;;0.93;0.80;;;;;;;10.81;100.00;99310.53;5040966;28;20197;-76
2023/10/22 02:06:14;;;;;;;1.43;1.17;;;;;;;10.80;100.00;99310.59;5042055;28;20252;-77
2023/10/22 02:08:40;;;;;;;1.67;0.80;;;;;;;10.80;100.00;99308.00;5041652;28;20564;-77
2023/10/22 02:11:06;;;;;;;2.77;1.23;;;;;;;10.80;100.00;99319.19;5040413;28;20187;-77
2023/10/22 02:13:31;;;;;;;1.70;1.10;;;;;;;10.78;100.00;99318.38;5039227;28;20193;-78
2023/10/22 02:15:57;;;;;;;1.20;1.10;;;;;;;10.79;100.00;99322.66;5040806;28;20183;-77
2023/10/22 02:18:22;;;;;;;2.57;1.37;;;;;;;10.78;100.00;99320.13;5042177;28;20231;-77
2023/10/22 02:20:58;;;;;;;1.83;1.10;;;;;;;10.78;100.00;99333.06;5041576;28;20179;-77
2023/10/22 02:23:24;;;;;;;1.73;1.00;;;;;;;10.77;100.00;99331.34;5038417;28;20191;-76
2023/10/22 02:25:50;;;;;;;1.80;0.90;;;;;;;10.74;100.00;99328.84;5039918;28;20210;-76
2023/10/22 02:28:16;;;;;;;1.50;1.03;;;;;;;10.73;100.00;99322.81;5041433;28;20242;-77
2023/10/22 02:30:42;;;;;;;1.57;1.00;;;;;;;10.74;100.00;99332.25;5041244;28;20621;-78
2023/10/22 02:33:07;;;;;;;1.60;0.90;;;;;;;10.74;100.00;99334.00;5039507;28;20196;-76
2023/10/22 02:35:45;;;;;;;4.63;1.23;;;;;;;10.73;100.00;99332.31;5040311;28;20671;-77
2023/10/22 02:38:18;;;;;;;1.17;1.00;;;;;;;10.71;100.00;99329.78;5040880;28;20207;-76
2023/10/22 02:40:48;;;;;;;2.00;1.30;;;;;;;10.70;100.00;99333.25;5039887;28;20194;-77
2023/10/22 02:43:14;;;;;;;1.30;0.90;;;;;;;10.67;100.00;99331.56;5038944;28;20187;-76
2023/10/22 02:45:49;;;;;;;1.80;1.10;;;;;;;10.65;100.00;99332.50;5041490;28;20202;-76
2023/10/22 02:48:14;;;;;;;1.50;1.20;;;;;;;10.64;100.00;99338.56;5038927;28;20202;-76
2023/10/22 02:50:39;;;;;;;3.00;1.13;;;;;;;10.62;100.00;99341.19;5040797;28;20586;-77
2023/10/22 02:53:04;;;;;;;1.60;1.07;;;;;;;10.62;100.00;99342.91;5038886;28;20275;-77
2023/10/22 02:55:30;;;;;;;1.63;0.80;;;;;;;10.60;100.00;99342.97;5040611;28;20253;-77
2023/10/22 02:57:55;;;;;;;1.60;1.03;;;;;;;10.59;100.00;99346.44;5039396;28;20217;-79
2023/10/22 03:00:20;;;;;;;2.27;0.87;;;;;;;10.57;100.00;99340.44;5039798;28;20233;-77
2023/10/22 03:02:46;;;;;;;2.07;1.10;;;;;;;10.56;100.00;99349.09;5037537;28;20193;-77
2023/10/22 03:05:11;;;;;;;1.77;1.00;;;;;;;10.56;100.00;99350.84;5040380;28;20193;-77
2023/10/22 03:07:36;;;;;;;1.93;1.10;;;;;;;10.55;100.00;99349.97;5041574;28;20213;-77
2023/10/22 03:10:03;;;;;;;2.23;1.00;;;;;;;10.56;100.00;99351.69;5038866;28;20194;-78
2023/10/22 03:12:28;;;;;;;2.93;1.20;;;;;;;10.56;100.00;99350.84;5038235;28;20215;-76
2023/10/22 03:14:53;;;;;;;2.30;1.23;;;;;;;10.56;100.00;99350.84;5035269;28;20184;-77
2023/10/22 03:17:19;;;;;;;2.03;1.10;;;;;;;10.56;100.00;99351.69;5041168;28;20570;-76
2023/10/22 03:19:45;;;;;;;2.27;1.13;;;;;;;10.57;100.00;99355.97;5051784;28;20182;-77
2023/10/22 03:22:11;;;;;;;1.63;1.20;;;;;;;10.59;100.00;99354.22;5038878;28;20690;-76
2023/10/22 03:24:36;;;;;;;2.47;1.30;;;;;;;10.59;100.00;99361.13;5035866;28;20229;-75
2023/10/22 03:27:05;;;;;;;2.80;1.23;;;;;;;10.64;100.00;99367.03;5038107;28;20250;-78
2023/10/22 03:29:32;;;;;;;2.53;1.23;;;;;;;10.62;100.00;99364.50;5037401;28;20229;-76
2023/10/22 03:31:57;;;;;;;2.93;1.07;;;;;;;10.61;100.00;99364.50;5033316;28;20330;-79
2023/10/22 03:34:23;;;;;;;1.93;1.17;;;;;;;10.61;100.00;99369.69;5039633;28;20205;-78
2023/10/22 03:36:49;;;;;;;1.57;0.87;;;;;;;10.58;100.00;99369.78;5041372;28;20204;-77
2023/10/22 03:39:14;;;;;;;3.20;1.10;;;;;;;10.58;100.00;99372.38;5037164;28;20182;-78
2023/10/22 03:41:40;;;;;;;1.93;1.00;;;;;;;10.55;100.00;99373.28;5041772;28;20182;-77
2023/10/22 03:44:05;;;;;;;2.33;1.00;;;;;;;10.56;100.00;99371.53;5043864;28;20663;-78
2023/10/22 03:46:31;;;;;;;1.50;0.93;;;;;;;10.61;100.00;99380.91;5046411;28;20222;-77
2023/10/22 03:48:57;;;;;;;1.50;1.00;;;;;;;10.57;100.00;99376.66;5046256;28;20324;-76
2023/10/22 03:51:23;;;;;;;2.00;1.00;;;;;;;10.58;100.00;99383.56;5044532;28;20191;-77
2023/10/22 03:53:49;;;;;;;2.50;1.00;;;;;;;10.54;100.00;99391.44;5043762;28;20183;-77
2023/10/22 03:56:14;;;;;;;3.07;0.97;;;;;;;10.56;100.00;99395.66;5055694;28;20739;-78
2023/10/22 03:58:40;;;;;;;2.60;0.90;;;;;;;10.57;100.00;99399.97;5061080;28;20190;-77
2023/10/22 04:01:05;;;;;;;3.07;1.27;;;;;;;10.51;100.00;99403.53;5046851;28;20206;-77
2023/10/22 04:03:30;;;;;;;3.27;1.30;;;;;;;10.48;100.00;99410.53;5044678;28;20320;-77
2023/10/22 04:05:57;;;;;;;2.50;1.10;;;;;;;10.48;100.00;99415.69;5044805;28;20210;-77
2023/10/22 04:08:23;;;;;;;0.97;0.93;;;;;;;10.46;100.00;99409.72;5043202;28;20302;-77
2023/10/22 04:10:49;;;;;;;2.50;1.20;;;;;;;10.50;100.00;99416.53;5045650;28;20221;-77
2023/10/22 04:13:14;;;;;;;1.83;1.00;;;;;;;10.46;100.00;99423.47;5043599;28;20215;-78
2023/10/22 04:15:40;;;;;;;2.73;1.17;;;;;;;10.45;100.00;99415.75;5042490;28;20621;-78
2023/10/22 04:18:05;;;;;;;1.87;1.37;;;;;;;10.42;100.00;99424.47;5058960;28;20638;-77
2023/10/22 04:20:33;;;;;;;2.33;0.90;;;;;;;10.41;100.00;99420.16;5045817;28;20253;-78
2023/10/22 04:22:58;;;;;;;2.47;1.17;;;;;;;10.40;100.00;99417.59;5041414;28;20938;-78
2023/10/22 04:25:24;;;;;;;0.93;0.83;;;;;;;10.40;100.00;99431.41;5046641;28;20248;-79
2023/10/22 04:27:49;;;;;;;2.17;0.90;;;;;;;10.37;100.00;99421.91;5043284;28;20202;-77
2023/10/22 04:30:14;;;;;;;2.27;0.93;;;;;;;10.37;100.00;99431.44;5045651;28;20186;-78
2023/10/22 04:32:40;;;;;;;1.73;0.80;;;;;;;10.36;100.00;99437.47;5043285;28;20244;-78
2023/10/22 04:35:05;;;;;;;1.83;0.80;;;;;;;10.35;100.00;99434.06;5042963;28;20749;-78
2023/10/22 04:37:31;;;;;;;1.30;0.90;;;;;;;10.33;100.00;99446.16;5042454;28;20195;-77
2023/10/22 04:39:56;;;;;;;2.50;1.10;;;;;;;10.33;100.00;99429.78;5044083;28;20179;-77
2023/10/22 04:42:22;;;;;;;1.90;0.83;;;;;;;10.33;100.00;99446.16;5043523;28;20265;-78
2023/10/22 04:44:47;;;;;;;2.10;1.10;;;;;;;10.34;100.00;99447.00;5043978;28;20190;-78
2023/10/22 04:47:12;;;;;;;3.27;1.43;;;;;;;10.34;100.00;99452.19;5045030;28;20206;-77
2023/10/22 04:49:38;;;;;;;1.93;1.10;;;;;;;10.34;100.00;99440.09;5041956;28;20529;-77
2023/10/22 04:52:03;;;;;;;2.13;1.00;;;;;;;10.32;100.00;99447.03;5044182;28;20200;-78
2023/10/22 04:54:29;;;;;;;2.30;1.17;;;;;;;10.32;100.00;99453.94;5040471;28;20328;-78
2023/10/22 04:56:54;;;;;;;3.97;1.13;;;;;;;10.31;100.00;99455.69;5044442;28;20205;-79
2023/10/22 04:59:20;;;;;;;3.27;1.20;;;;;;;10.30;100.00;99456.56;5042519;28;20255;-78
2023/10/22 05:01:45;;;;;;;3.23;1.10;;;;;;;10.32;100.00;99464.28;5040393;28;20187;-77
2023/10/22 05:04:10;;;;;;;3.57;1.03;;;;;;;10.32;100.00;99469.44;5043227;28;20229;-76
2023/10/22 05:06:36;;;;;;;2.60;1.33;;;;;;;10.36;100.00;99465.94;5043157;28;20714;-79
2023/10/22 05:09:01;;;;;;;2.50;0.90;;;;;;;10.32;100.00;99461.69;5044820;28;20191;-78
2023/10/22 05:11:26;;;;;;;3.63;1.20;;;;;;;10.35;100.00;99466.81;5057174;28;20232;-79
2023/10/22 05:13:52;;;;;;;2.17;0.93;;;;;;;10.32;100.00;99461.69;5043895;28;20273;-79
2023/10/22 05:16:17;;;;;;;2.43;1.70;;;;;;;10.30;100.00;99463.47;5042941;28;20324;-78
2023/10/22 05:18:42;;;;;;;6.07;3.87;;;;;;;10.31;100.00;99466.03;5042908;28;20243;-78
2023/10/22 05:21:09;;;;;;;2.10;1.37;;;;;;;10.27;100.00;99464.38;5043072;28;20217;-78
2023/10/22 05:23:34;;;;;;;2.60;1.53;;;;;;;10.26;100.00;99462.69;5043673;28;20183;-77
2023/10/22 05:26:07;;;;;;;1.63;1.53;;;;;;;10.24;100.00;99464.44;5042414;28;20721;-77
2023/10/22 05:28:32;;;;;;;2.50;1.17;;;;;;;10.22;100.00;99461.91;5060397;28;20190;-78
2023/10/22 05:30:57;;;;;;;2.13;1.10;;;;;;;10.21;100.00;99467.94;5042732;28;20193;-78
2023/10/22 05:33:23;;;;;;;1.57;1.07;;;;;;;10.21;100.00;99464.50;5042318;28;20217;-78
2023/10/22 05:35:48;;;;;;;2.47;1.20;;;;;;;10.19;100.00;99461.13;5041007;28;20822;-76
2023/10/22 05:38:13;;;;;;;2.13;1.07;;;;;;;10.17;100.00;99468.06;5043205;28;20198;-77
2023/10/22 05:40:39;;;;;;;2.57;1.20;;;;;;;10.17;100.00;99470.63;5046522;28;20190;-78
2023/10/22 05:43:04;;;;;;;2.77;1.20;;;;;;;10.14;100.00;99474.13;5045497;28;20214;-77
2023/10/22 05:45:29;;;;;;;2.47;0.90;;;;;;;10.14;100.00;99483.63;5046292;28;20191;-78
2023/10/22 05:47:55;;;;;;;2.83;1.10;;;;;;;10.13;100.00;99487.97;5044099;28;20239;-77
2023/10/22 05:50:20;;;;;;;2.20;1.10;;;;;;;10.12;100.00;99493.13;5047716;28;20221;-78
2023/10/22 05:52:46;;;;;;;3.17;0.87;;;;;;;10.13;100.00;99495.72;5046766;28;20221;-78
2023/10/22 05:55:13;;;;;;;2.10;1.10;;;;;;;10.14;100.00;99499.97;5048089;28;20221;-78
2023/10/22 05:57:39;;;;;;;2.67;1.10;;;;;;;10.16;100.00;99502.53;5062887;28;20228;-77
2023/10/22 06:00:07;;;;;;;1.40;0.70;;;;;;;10.17;100.00;99502.50;5054665;28;20191;-77
2023/10/22 06:02:33;;;;;;;2.67;1.27;;;;;;;10.20;100.00;99505.03;5042412;28;20196;-78
2023/10/22 06:04:59;;;;;;;1.87;1.20;;;;;;;10.26;100.00;99503.22;5042806;28;20275;-79
2023/10/22 06:07:24;;;;;;;2.70;1.23;;;;;;;10.32;100.00;99508.25;5042083;28;20225;-76
2023/10/22 06:09:50;;;;;;;3.50;1.50;;;;;;;10.40;100.00;99514.16;5040660;28;20182;-77
2023/10/22 06:12:15;;;;;;;1.50;0.90;;;;;;;10.47;100.00;99523.47;5041787;28;20210;-77
2023/10/22 06:14:40;;;;;;;2.07;1.00;;;;;;;10.51;100.00;99519.13;5043375;28;20187;-78
2023/10/22 06:17:06;;;;;;;2.43;1.20;;;;;;;10.60;100.00;99525.81;5041651;28;20285;-79
2023/10/22 06:19:41;;;;;;;2.87;1.10;;;;;;;10.71;100.00;99530.75;5043908;28;20241;-77
2023/10/22 06:22:08;;;;;;;4.60;1.30;;;;;;;10.81;100.00;99530.53;5039628;28;20187;-77
2023/10/22 06:24:34;;;;;;;2.47;0.93;;;;;;;10.90;100.00;99539.81;5041502;28;20725;-77
2023/10/22 06:26:59;;;;;;;3.57;1.33;;;;;;;11.00;100.00;99532.72;5059214;28;20368;-77
2023/10/22 06:29:25;;;;;;;2.93;1.17;;;;;;;11.11;100.00;99529.88;5042918;28;20256;-76
2023/10/22 06:31:50;;;;;;;2.63;0.90;;;;;;;11.22;100.00;99546.00;5041432;28;20687;-78
2023/10/22 06:34:16;;;;;;;2.53;0.97;;;;;;;11.33;100.00;99540.59;5040078;28;20191;-78
2023/10/22 06:36:41;;;;;;;3.27;1.10;;;;;;;11.44;100.00;99554.13;5042700;28;20203;-77
2023/10/22 06:39:07;;;;;;;2.20;1.17;;;;;;;11.54;100.00;99565.13;5037963;28;20183;-77
2023/10/22 06:41:32;;;;;;;3.10;1.27;;;;;;;11.66;100.00;99568.28;5037701;28;20262;-78
2023/10/22 06:43:57;;;;;;;2.53;1.30;;;;;;;11.74;100.00;99564.59;5031725;28;20298;-77
2023/10/22 06:46:23;;;;;;;4.13;1.13;;;;;;;11.83;100.00;99565.25;5034096;28;20210;-78
2023/10/22 06:48:48;;;;;;;3.40;1.43;;;;;;;11.88;100.00;99566.81;5055079;28;20728;-77
2023/10/22 06:51:15;;;;;;;3.80;1.40;;;;;;;11.94;100.00;99568.44;5039590;28;20609;-77
2023/10/22 06:53:42;;;;;;;2.60;1.20;;;;;;;12.04;100.00;99575.09;5039844;28;20184;-77
2023/10/22 06:56:12;;;;;;;2.70;1.40;;;;;;;12.11;100.00;99577.53;5038009;28;20317;-76
2023/10/22 06:58:38;;;;;;;4.00;1.63;;;;;;;12.22;100.00;99580.69;5037316;28;20172;-77
2023/10/22 07:01:09;;;;;;;3.00;1.00;;;;;;;12.30;100.00;99581.31;5035850;28;20184;-77
2023/10/22 07:03:35;;;;;;;2.23;1.37;;;;;;;12.33;100.00;99593.34;5039241;28;20195;-77
2023/10/22 07:06:00;;;;;;;4.13;1.13;;;;;;;12.37;100.00;99589.78;5038706;28;20245;-76
2023/10/22 07:08:29;;;;;;;2.70;1.10;;;;;;;12.36;100.00;99593.28;5037347;28;20232;-76
2023/10/22 07:10:55;;;;;;;5.50;1.33;;;;;;;12.31;100.00;99588.22;5040056;28;20315;-77
2023/10/22 07:13:21;;;;;;;2.50;1.20;;;;;;;12.28;100.00;99592.66;5040062;28;20194;-77
2023/10/22 07:15:49;;;;;;;2.70;1.07;;;;;;;12.28;100.00;99590.88;5041979;28;20185;-78
2023/10/22 07:18:15;;;;;;;6.10;1.50;;;;;;;12.26;100.00;99591.84;5042536;28;20287;-78
2023/10/22 07:20:40;;;;;;;2.20;1.27;;;;;;;12.24;100.00;99604.00;5044027;28;20333;-77
2023/10/22 07:23:06;;;;;;;3.53;1.23;;;;;;;12.22;100.00;99596.25;5041157;28;20188;-77
2023/10/22 07:25:32;;;;;;;2.70;1.27;;;;;;;12.18;100.00;99598.06;5044056;28;20191;-77
2023/10/22 07:27:57;;;;;;;3.17;1.20;;;;;;;12.14;100.00;99598.19;5044880;28;20343;-76
2023/10/22 07:30:23;;;;;;;3.23;1.20;;;;;;;12.11;100.00;99596.53;5044250;28;20185;-77
2023/10/22 07:32:52;;;;;;;1.70;1.00;;;;;;;12.08;100.00;99595.78;5042871;28;20183;-77
2023/10/22 07:35:18;;;;;;;2.17;1.03;;;;;;;12.06;100.00;99602.75;5043323;28;20250;-77
2023/10/22 07:37:44;;;;;;;4.00;1.40;;;;;;;12.06;100.00;99601.00;5043265;28;20230;-77
2023/10/22 07:40:13;;;;;;;3.00;1.43;;;;;;;12.10;100.00;99604.38;5044175;28;20211;-77
2023/10/22 07:42:38;;;;;;;1.60;0.70;;;;;;;12.20;100.00;99614.44;5037921;28;20184;-78
2023/10/22 07:45:04;;;;;;;2.77;1.30;;;;;;;12.35;100.00;99617.50;5042621;28;20620;-78
2023/10/22 07:47:29;;;;;;;2.93;1.30;;;;;;;12.55;100.00;99618.72;5046354;28;20721;-78
2023/10/22 07:49:55;;;;;;;2.80;1.10;;;;;;;12.72;100.00;99621.69;5046077;28;21431;-77
2023/10/22 07:52:20;;;;;;;3.10;1.30;;;;;;;12.87;100.00;99617.78;5046401;28;20201;-77
2023/10/22 07:54:47;;;;;;;4.27;1.30;;;;;;;13.02;100.00;99624.28;5047368;28;20184;-77
2023/10/22 07:57:13;;;;;;;4.03;1.40;;;;;;;13.12;100.00;99622.28;5062194;28;20204;-78
2023/10/22 07:59:38;;;;;;;2.50;1.00;;;;;;;13.21;100.00;99622.00;5043317;28;20669;-77
2023/10/22 08:02:03;;;;;;;3.47;1.33;;;;;;;13.18;100.00;99629.03;5043005;28;20399;-77
2023/10/22 08:04:29;;;;;;;3.23;1.23;;;;;;;13.15;100.00;99632.59;5042932;28;20194;-77
2023/10/22 08:06:54;;;;;;;4.23;1.50;;;;;;;13.26;100.00;99633.09;5043403;28;20215;-77
2023/10/22 08:09:22;;;;;;;3.73;1.20;;;;;;;13.37;100.00;99637.09;5040299;28;20243;-77
2023/10/22 08:11:48;;;;;;;2.93;1.47;;;;;;;13.47;100.00;99642.91;5040182;28;20279;-77
2023/10/22 08:14:13;;;;;;;4.60;1.50;;;;;;;13.54;100.00;99653.06;5036576;28;20277;-77
2023/10/22 08:16:38;;;;;;;2.77;1.33;;;;;;;13.65;100.00;99638.88;5030146;28;20292;-76
2023/10/22 08:19:04;;;;;;;2.73;1.00;;;;;;;13.75;100.00;99650.69;5025481;28;20197;-77
2023/10/22 08:21:30;;;;;;;2.00;1.17;;;;;;;13.95;100.00;99651.75;5030512;28;20297;-77
2023/10/22 08:23:56;;;;;;;3.07;1.07;;;;;;;14.05;100.00;99652.31;5042124;28;20251;-77
2023/10/22 08:26:22;;;;;;;3.43;1.33;;;;;;;14.11;99.04;99657.31;5041398;28;20640;-77
2023/10/22 08:28:47;;;;;;;2.63;1.30;;;;;;;14.14;99.49;99658.06;5040100;28;20916;-77
2023/10/22 08:31:12;;;;;;;1.97;1.20;;;;;;;14.29;98.42;99656.66;5040869;28;20198;-78
2023/10/22 08:33:38;;;;;;;2.83;1.27;;;;;;;14.38;98.07;99659.88;5040408;28;21058;-78
2023/10/22 08:36:07;;;;;;;2.77;1.27;;;;;;;14.51;97.84;99658.53;5041379;28;20664;-77
2023/10/22 08:38:33;;;;;;;2.83;1.33;;;;;;;14.50;96.13;99662.03;5042657;28;20259;-77
2023/10/22 08:41:02;;;;;;;2.40;0.80;;;;;;;14.78;95.74;99667.16;5044114;28;21407;-78
2023/10/22 08:43:33;;;;;;;2.93;1.10;;;;;;;14.98;95.10;99667.31;5038050;28;20190;-76
2023/10/22 08:46:01;;;;;;;3.03;1.27;;;;;;;15.08;94.01;99668.66;5039089;28;20241;-78
2023/10/22 08:48:27;;;;;;;1.93;1.20;;;;;;;15.14;94.03;99668.44;5042056;28;20217;-79
2023/10/22 08:50:52;;;;;;;2.37;1.30;;;;;;;15.18;94.04;99666.56;5041573;28;20653;-77
2023/10/22 08:53:18;;;;;;;3.40;1.70;;;;;;;15.11;92.74;99673.78;5043413;28;20191;-77
2023/10/22 08:55:45;;;;;;;4.40;1.63;;;;;;;15.15;92.42;99669.28;5044008;28;20267;-77
2023/10/22 08:58:16;;;;;;;2.37;1.27;;;;;;;15.11;93.02;99665.94;5036936;28;20202;-77
2023/10/22 09:00:45;;;;;;;3.30;1.50;;;;;;;15.15;92.34;99669.28;5044465;28;21118;-78
2023/10/22 09:03:11;;;;;;;4.37;1.53;;;;;;;15.36;92.29;99672.81;5040670;28;20205;-78
2023/10/22 09:05:38;;;;;;;3.37;1.30;;;;;;;15.46;92.18;99678.53;5043561;28;20217;-77
2023/10/22 09:08:04;;;;;;;3.43;1.47;;;;;;;15.30;90.61;99680.91;5040164;28;20363;-78
2023/10/22 09:10:31;;;;;;;4.03;1.63;;;;;;;15.49;90.66;99675.81;5038243;28;20221;-77
2023/10/22 09:13:17;;;;;;;4.97;1.53;;;;;;;15.54;90.35;99679.94;5036282;28;20186;-77
2023/10/22 09:15:47;;;;;;;4.33;1.67;;;;;;;15.60;90.79;99676.22;5040569;28;20658;-78
2023/10/22 09:18:14;;;;;;;4.43;1.50;;;;;;;15.45;90.71;99682.06;5042721;28;20210;-77
2023/10/22 09:20:41;;;;;;;3.17;1.40;;;;;;;15.71;90.72;99681.03;5040330;28;20566;-77
2023/10/22 09:23:22;;;;;;;3.30;1.40;;;;;;;15.87;89.85;99683.06;5043763;28;20195;-78
2023/10/22 09:25:48;;;;;;;2.43;1.47;;;;;;;15.98;89.22;99686.06;5044698;28;20210;-78
2023/10/22 09:28:24;;;;;;;6.43;1.53;;;;;;;15.92;87.14;99686.34;5039938;28;20832;-77
2023/10/22 09:31:05;;;;;;;2.80;1.60;;;;;;;15.84;87.54;99679.63;5046481;28;20182;-77
2023/10/22 09:33:35;;;;;;;4.17;1.70;;;;;;;15.90;87.54;99685.53;5040884;28;20187;-77
2023/10/22 09:36:10;;;;;;;6.40;1.90;;;;;;;15.84;86.56;99692.66;5041964;28;20236;-77
2023/10/22 09:38:48;;;;;;;4.30;1.63;;;;;;;15.90;87.47;99690.75;5045712;28;20182;-77
2023/10/22 09:41:23;;;;;;;5.37;1.87;;;;;;;15.84;87.48;99695.28;5043340;28;20215;-78
2023/10/22 09:43:52;;;;;;;5.50;1.90;;;;;;;15.85;87.44;99691.78;5041208;28;21012;-77
2023/10/22 09:46:18;;;;;;;6.17;1.73;;;;;;;15.75;87.64;99685.22;5043773;28;20199;-78
2023/10/22 09:48:49;;;;;;;3.27;1.57;;;;;;;15.92;86.81;99691.56;5036534;28;20190;-78
2023/10/22 09:51:17;;;;;;;3.77;1.83;;;;;;;16.03;86.55;99691.13;5049088;28;20225;-79
2023/10/22 09:54:05;;;;;;;4.83;1.60;;;;;;;15.99;86.20;99703.41;5058713;28;20194;-79
2023/10/22 09:56:32;;;;;;;4.77;1.80;;;;;;;16.04;86.18;99692.78;5058311;28;20199;-78
2023/10/22 09:59:07;;;;;;;5.43;1.77;;;;;;;15.99;86.82;99704.28;5041647;28;20183;-78
2023/10/22 10:01:34;;;;;;;4.77;1.73;;;;;;;16.19;86.32;99705.19;5044165;28;20902;-79
2023/10/22 10:04:01;;;;;;;3.40;1.40;;;;;;;16.33;86.61;99709.84;5036892;28;21204;-76
2023/10/22 10:06:27;;;;;;;5.60;1.60;;;;;;;16.38;86.50;99701.81;5037060;28;20265;-77
2023/10/22 10:08:53;;;;;;;5.37;1.30;;;;;;;16.43;86.27;99705.94;5039939;28;20253;-77
2023/10/22 10:11:19;;;;;;;5.10;1.47;;;;;;;16.36;86.42;99709.75;5038217;28;20199;-78
2023/10/22 10:13:44;;;;;;;5.13;1.60;;;;;;;16.21;86.35;99706.00;5036306;28;20670;-78
2023/10/22 10:16:10;;;;;;;5.90;1.57;;;;;;;16.33;86.03;99711.63;5040775;28;20260;-77
2023/10/22 10:19:10;;;;;;;6.10;1.50;;;;;;;16.56;86.09;99723.72;5042631;28;20414;-78
2023/10/22 10:21:43;;;;;;;3.90;1.30;;;;;;;16.69;85.07;99711.81;5037256;28;20208;-78
2023/10/22 10:24:17;;;;;;;3.17;1.53;;;;;;;16.81;84.76;99710.41;5038252;28;20574;-78
2023/10/22 10:26:47;;;;;;;3.57;1.57;;;;;;;16.83;83.53;99718.19;5040726;28;20213;-78
2023/10/22 10:29:15;;;;;;;3.13;1.33;;;;;;;17.01;83.65;99716.56;5040442;28;20191;-77
2023/10/22 10:31:41;;;;;;;3.97;1.40;;;;;;;17.02;82.62;99719.09;5036129;28;20687;-78
2023/10/22 10:34:07;;;;;;;2.23;1.20;;;;;;;16.98;82.19;99714.06;5037429;28;20579;-78
2023/10/22 10:36:33;;;;;;;2.90;1.47;;;;;;;16.92;82.29;99729.09;5042791;28;20290;-77
2023/10/22 10:39:35;;;;;;;4.50;1.40;;;;;;;16.70;82.40;99718.75;5039650;28;20217;-78
2023/10/22 10:42:01;;;;;;;3.97;1.40;;;;;;;16.84;82.07;99719.91;5040548;28;20273;-78
2023/10/22 10:44:29;;;;;;;4.27;1.50;;;;;;;17.04;81.25;99717.25;5040957;28;20792;-77
2023/10/22 10:47:15;;;;;;;4.17;1.70;;;;;;;16.77;82.32;99717.53;5042108;28;20214;-77
2023/10/22 10:50:06;;;;;;;8.47;1.90;;;;;;;16.88;82.08;99717.09;5039914;28;20216;-78
2023/10/22 10:52:34;;;;;;;2.83;1.33;;;;;;;17.13;81.21;99707.31;5037842;28;20206;-77
2023/10/22 10:55:32;;;;;;;2.50;1.53;;;;;;;17.01;81.17;99708.72;5039592;28;20258;-77
2023/10/22 10:57:59;;;;;;;5.57;1.80;;;;;;;17.18;81.33;99711.41;5023380;28;20213;-77
2023/10/22 11:00:33;;;;;;;5.67;1.67;;;;;;;17.12;81.71;99716.91;5038216;28;20182;-77
2023/10/22 11:03:10;;;;;;;4.00;1.60;;;;;;;17.35;80.70;99720.25;5041621;28;20179;-77
2023/10/22 11:05:39;;;;;;;4.30;1.60;;;;;;;17.58;80.28;99715.69;5054781;28;20243;-77
2023/10/22 11:08:10;;;;;;;4.33;1.30;;;;;;;17.56;80.11;99715.78;5038153;28;20421;-77
2023/10/22 11:10:36;;;;;;;3.73;1.40;;;;;;;17.58;80.05;99716.56;5042018;28;20226;-76
2023/10/22 11:13:03;;;;;;;3.57;1.47;;;;;;;17.52;79.43;99709.00;5038205;28;20591;-77
2023/10/22 11:15:34;;;;;;;3.73;1.33;;;;;;;17.65;79.81;99707.50;5042196;28;20486;-77
2023/10/22 11:18:04;;;;;;;4.47;1.40;;;;;;;17.64;79.81;99705.78;5036897;28;20672;-79
2023/10/22 11:20:30;;;;;;;5.97;1.90;;;;;;;17.61;79.86;99705.09;5040908;28;20216;-78
2023/10/22 11:22:56;;;;;;;2.37;1.47;;;;;;;17.45;79.37;99720.69;5040729;28;20269;-76
2023/10/22 11:25:22;;;;;;;4.00;1.30;;;;;;;17.38;79.71;99725.34;5040234;28;20190;-78
2023/10/22 11:27:47;;;;;;;3.60;1.70;;;;;;;17.33;79.71;99724.72;5039442;28;20248;-78